createdAt,value
2022-12-31T00:00:24.908Z,10.3
2022-12-31T00:30:10.990Z,9.9
2022-12-31T01:00:02.863Z,10.8
2022-12-31T01:30:19.008Z,10.9
2022-12-31T02:00:18.865Z,11.1
2022-12-31T02:30:05.168Z,11.4
2022-12-31T03:00:21.268Z,11.5
2022-12-31T03:30:12.656Z,11.4
2022-12-31T04:00:05.589Z,11.6
2022-12-31T04:30:16.711Z,11.6
2022-12-31T05:00:23.301Z,11.7
2022-12-31T05:30:09.288Z,11.7
2022-12-31T06:00:24.838Z,11.8
2022-12-31T06:30:10.312Z,12.1
2022-12-31T07:00:25.010Z,12
2022-12-31T07:30:26.886Z,12.2
2022-12-31T08:00:18.015Z,12.5
2022-12-31T08:30:03.791Z,12.8
2022-12-31T09:30:21.569Z,13.4
2022-12-31T10:00:07.234Z,14.4
2022-12-31T10:30:07.290Z,15.1
2022-12-31T11:00:28.701Z,15.3
2022-12-31T11:30:14.971Z,16.5
2022-12-31T12:00:29.347Z,18.5
2022-12-31T12:30:22.911Z,16.9
2022-12-31T13:00:07.421Z,16.6
2022-12-31T13:30:29.124Z,16.3
2022-12-31T14:00:26.255Z,15.7
2022-12-31T14:30:25.742Z,14.6
2022-12-31T15:00:10.878Z,12.9
2022-12-31T15:30:27.515Z,12.2
2022-12-31T16:00:12.207Z,11.4
2022-12-31T16:30:13.110Z,11
2022-12-31T17:00:05.148Z,10.6
2022-12-31T17:30:20.826Z,10.4
2022-12-31T18:00:06.239Z,10.5
2022-12-31T18:30:04.662Z,10.9
2022-12-31T19:00:23.682Z,10.5
2022-12-31T19:30:11.302Z,10.6
2022-12-31T20:00:02.194Z,12.2
2022-12-31T20:30:03.243Z,13
2022-12-31T21:00:10.788Z,13.6
2022-12-31T21:30:20.130Z,13.8
2022-12-31T22:30:27.001Z,13.2
2022-12-31T23:30:22.780Z,13.1
